Terminal Aerodrome Forecast
Issued by NWS

Home | Current Version | Previous Version | Text Only | Print | Product List | Glossary On
Versions: 1 2 3 4 5 6 7 8 9 10 11 12 13 14 15 16
028
FTUS43 KMQT 102321
TAFSAW
TAF
KSAW 102321Z 1100/1124 32010G17KT P6SM VCSH BKN035
     FM110400 32008KT P6SM VCSH OVC050
     FM111200 32006KT P6SM SCT040
     FM111500 30008KT P6SM BKN040
     FM112300 26007KT P6SM SCT060=

USA.gov is the U.S. government's official web portal to all federal, state and local government web resources and services.